首页
METAR-TAF:

METAR-TAF

机场 :

Rock Hill/York County Airport (Bryant Field)

Rock Hill, 南卡罗来纳州, 美国

纬度: 34-59-02N, 经度: 081-03-21W, 海拔: 204米

当前天气观测

该预报发布于22分钟前的13:54 UTC
风速5节,风向南转西南
温度 25°C
湿度 89%
气压 1018 hPa
能見度: 14.5公里
阴天层高于1200英尺

METAR: KUZA 201354Z AUTO 20005KT 9SM OVC012 25/23 A3007 RMK AO2 SLP170 T02500233

时间: 10:16 (14:16 UTC)


TAF: 丢失

超过4000个机场的气象观测和天气预报(METAR&TAF报告)。

可查询的气象台以黄色和红色小点在地图上表示。

将鼠标移到小点上方,可查看气象台名称。

然后点击查看天气观测和预报。

如需切换地图:点击带黑十字的绿色按钮放大地图;点击带横线的绿色按钮缩小地图;或者点击绿色箭头查看邻近地区的地图。


METAR-TAF: